createdAt,value
2022-09-13T00:00:33.811Z,100898.38
2022-09-13T00:03:38.753Z,100894.09
2022-09-13T00:06:42.391Z,100893.34
2022-09-13T00:09:46.018Z,100896.13
2022-09-13T00:12:50.491Z,100890.84
2022-09-13T00:15:54.038Z,100889.97
2022-09-13T00:19:00.968Z,100883.78
2022-09-13T00:22:06.489Z,100881.03
2022-09-13T00:25:11.290Z,100881.78
2022-09-13T00:28:14.852Z,100871.59
2022-09-13T00:31:19.170Z,100876.16
2022-09-13T00:34:24.160Z,100869.16
2022-09-13T00:37:27.726Z,100869.31
2022-09-13T00:40:31.450Z,100869.31
2022-09-13T00:43:49.264Z,100865.38
2022-09-13T00:46:55.111Z,100883.31
2022-09-13T00:50:07.402Z,100889.47
2022-09-13T00:53:17.597Z,100884.44
2022-09-13T00:56:28.491Z,100877.38
2022-09-13T00:59:41.096Z,100869.66
2022-09-13T01:02:51.486Z,100871.47
2022-09-13T01:06:01.411Z,100869.34
2022-09-13T01:09:07.171Z,100868.66
2022-09-13T01:12:25.737Z,100864.44
2022-09-13T01:15:29.299Z,100849.06
2022-09-13T01:18:32.948Z,100872.13
2022-09-13T01:22:53.783Z,100860.09
2022-09-13T01:26:44.744Z,100848.91
2022-09-13T01:30:16.612Z,100836.09
2022-09-13T01:33:45.490Z,100832.69
2022-09-13T01:37:34.323Z,100843.28
2022-09-13T01:41:01.889Z,100825.03
2022-09-13T01:44:21.456Z,100816.31
2022-09-13T01:47:34.127Z,100816.22
2022-09-13T01:50:44.675Z,100818.69
2022-09-13T01:54:03.432Z,100808.09
2022-09-13T01:57:17.801Z,100787.75
2022-09-13T02:00:21.818Z,100795.94
2022-09-13T02:03:35.203Z,100794.63
2022-09-13T02:06:45.722Z,100788.78
2022-09-13T02:09:56.817Z,100793.28
2022-09-13T02:13:03.259Z,100791.50
2022-09-13T02:16:18.498Z,100796.88
2022-09-13T02:19:31.235Z,100789.00
2022-09-13T02:22:41.574Z,100786.31
2022-09-13T02:25:50.155Z,100781.19
2022-09-13T02:28:57.587Z,100788.97
2022-09-13T02:32:11.451Z,100781.19
2022-09-13T02:35:23.931Z,100777.78
2022-09-13T02:38:34.528Z,100782.03
2022-09-13T02:41:47.699Z,100775.13
2022-09-13T02:44:55.519Z,100786.47
2022-09-13T02:48:04.890Z,100788.16
2022-09-13T02:51:18.982Z,100784.59
2022-09-13T02:54:34.362Z,100785.53
2022-09-13T02:57:48.614Z,100777.88
2022-09-13T03:00:53.033Z,100764.56
2022-09-13T03:03:56.816Z,100760.19
2022-09-13T03:07:04.178Z,100767.38
2022-09-13T03:10:12.334Z,100762.25
2022-09-13T03:14:09.823Z,100770.13
2022-09-13T03:17:31.350Z,100772.66
2022-09-13T03:20:52.843Z,100771.03
2022-09-13T03:24:11.345Z,100766.41
2022-09-13T03:27:32.035Z,100760.72
2022-09-13T03:30:41.613Z,100753.91
2022-09-13T03:33:57.188Z,100751.50
2022-09-13T03:37:09.251Z,100755.94
2022-09-13T03:40:21.687Z,100751.50
2022-09-13T03:43:35.873Z,100761.31
2022-09-13T03:46:45.174Z,100761.16
2022-09-13T03:49:51.222Z,100759.19
2022-09-13T03:53:02.507Z,100755.94
2022-09-13T03:56:16.420Z,100770.97
2022-09-13T03:59:20.708Z,100764.63
2022-09-13T04:02:27.136Z,100759.34
2022-09-13T04:05:30.786Z,100769.78
2022-09-13T04:08:34.907Z,100774.19
2022-09-13T04:11:41.151Z,100766.88
2022-09-13T04:14:45.590Z,100770.25
2022-09-13T04:17:49.293Z,100765.84
2022-09-13T04:20:58.203Z,100763.03
2022-09-13T04:24:02.449Z,100770.13
2022-09-13T04:27:14.198Z,100777.94
2022-09-13T04:30:18.058Z,100773.41
2022-09-13T04:33:21.672Z,100774.19
2022-09-13T04:36:26.725Z,100763.44
2022-09-13T04:39:30.337Z,100760.91
2022-09-13T04:42:35.271Z,100772.13
2022-09-13T04:45:39.982Z,100769.50
2022-09-13T04:48:43.715Z,100769.50
2022-09-13T04:51:48.259Z,100766.84
2022-09-13T04:54:52.153Z,100766.75
2022-09-13T04:57:57.228Z,100774.38
2022-09-13T05:01:03.708Z,100775.38
2022-09-13T05:04:08.752Z,100780.50
2022-09-13T05:07:12.515Z,100784.06
2022-09-13T05:10:19.425Z,100783.03
2022-09-13T05:13:24.896Z,100781.19
2022-09-13T05:16:31.270Z,100788.84
2022-09-13T05:19:35.001Z,100771.97
2022-09-13T05:22:38.562Z,100768.19
2022-09-13T05:25:42.172Z,100776.88
2022-09-13T05:28:47.329Z,100774.16
2022-09-13T05:31:50.904Z,100785.50
2022-09-13T05:34:54.725Z,100771.25
2022-09-13T05:37:58.351Z,100787.59
2022-09-13T05:41:05.139Z,100785.56
2022-09-13T05:44:13.130Z,100775.56
2022-09-13T05:47:17.275Z,100771.81
2022-09-13T05:50:45.189Z,100777.75
2022-09-13T05:53:48.500Z,100781.00
2022-09-13T05:56:54.348Z,100775.25
2022-09-13T05:59:59.218Z,100780.38
2022-09-13T06:03:02.836Z,100775.09
2022-09-13T06:06:07.916Z,100767.88
2022-09-13T06:09:14.131Z,100787.09
2022-09-13T06:12:17.668Z,100787.75
2022-09-13T06:15:22.651Z,100785.09
2022-09-13T06:18:27.096Z,100784.94
2022-09-13T06:21:30.612Z,100785.94
2022-09-13T06:24:37.596Z,100788.69
2022-09-13T06:27:41.967Z,100785.19
2022-09-13T06:30:47.566Z,100780.75
2022-09-13T06:33:57.554Z,100785.00
2022-09-13T06:37:01.162Z,100787.50
2022-09-13T06:40:06.792Z,100790.00
2022-09-13T06:43:10.379Z,100793.19
2022-09-13T06:46:24.602Z,100793.97
2022-09-13T06:49:31.540Z,100788.59
2022-09-13T06:52:35.316Z,100785.34
2022-09-13T06:55:38.933Z,100786.13
2022-09-13T06:58:45.039Z,100789.13
2022-09-13T07:01:50.423Z,100800.72
2022-09-13T07:04:54.219Z,100796.34
2022-09-13T07:07:57.811Z,100801.38
2022-09-13T07:11:01.698Z,100796.00
2022-09-13T07:14:07.424Z,100797.69
2022-09-13T07:17:12.452Z,100794.19
2022-09-13T07:20:17.499Z,100791.53
2022-09-13T07:23:21.087Z,100795.69
2022-09-13T07:26:26.971Z,100802.06
2022-09-13T07:29:30.887Z,100796.56
2022-09-13T07:32:35.875Z,100796.69
2022-09-13T07:35:39.475Z,100804.66
2022-09-13T07:38:45.871Z,100812.81
2022-09-13T07:41:49.585Z,100812.31
2022-09-13T07:44:53.103Z,100821.91
2022-09-13T07:47:58.219Z,100817.94
2022-09-13T07:51:04.434Z,100820.19
2022-09-13T07:54:11.553Z,100821.69
2022-09-13T07:57:15.326Z,100824.72
2022-09-13T08:00:19.180Z,100823.84
2022-09-13T08:03:24.092Z,100826.28
2022-09-13T08:06:30.086Z,100833.66
2022-09-13T08:09:33.643Z,100822.53
2022-09-13T08:12:37.198Z,100830.41
2022-09-13T08:15:40.791Z,100828.50
2022-09-13T08:18:51.697Z,100839.13
2022-09-13T08:21:55.326Z,100844.59
2022-09-13T08:24:58.949Z,100837.22
2022-09-13T08:28:02.528Z,100846.97
2022-09-13T08:31:08.795Z,100851.44
2022-09-13T08:34:15.803Z,100858.81
2022-09-13T08:37:19.714Z,100859.03
2022-09-13T08:40:26.947Z,100864.69
2022-09-13T08:43:52.202Z,100861.13
2022-09-13T08:47:05.559Z,100858.47
2022-09-13T08:50:21.105Z,100857.25
2022-09-13T08:53:31.209Z,100856.72
2022-09-13T08:56:46.075Z,100858.53
2022-09-13T09:00:03.569Z,100852.59
2022-09-13T09:03:25.358Z,100866.03
2022-09-13T09:06:30.749Z,100860.13
2022-09-13T09:09:41.286Z,100865.44
2022-09-13T09:12:51.222Z,100852.66
2022-09-13T09:16:01.172Z,100857.59
2022-09-13T09:19:18.157Z,100854.31
2022-09-13T09:22:31.110Z,100844.03
2022-09-13T09:25:36.751Z,100848.53
2022-09-13T09:28:40.608Z,100845.09
2022-09-13T09:32:09.375Z,100857.94
2022-09-13T09:35:31.418Z,100858.84
2022-09-13T09:38:44.115Z,100851.06
2022-09-13T09:41:48.092Z,100852.56
2022-09-13T09:44:56.471Z,100851.44
2022-09-13T09:48:09.368Z,100851.56
2022-09-13T09:51:16.708Z,100852.94
2022-09-13T09:54:22.115Z,100860.97
2022-09-13T09:57:54.586Z,100850.38
2022-09-13T10:01:01.995Z,100854.34
2022-09-13T10:04:19.616Z,100851.69
2022-09-13T10:07:32.759Z,100853.91
2022-09-13T10:10:43.617Z,100852.84
2022-09-13T10:14:01.941Z,100853.47
2022-09-13T10:17:19.468Z,100851.69
2022-09-13T10:20:26.735Z,100838.91
2022-09-13T10:23:31.574Z,100836.53
2022-09-13T10:26:36.687Z,100831.47
2022-09-13T10:29:40.332Z,100839.84
2022-09-13T10:32:56.681Z,100838.34
2022-09-13T10:36:05.712Z,100836.56
2022-09-13T10:39:18.966Z,100835.28
2022-09-13T10:42:28.367Z,100842.00
2022-09-13T10:45:33.331Z,100836.06
2022-09-13T10:48:55.914Z,100834.25
2022-09-13T10:51:59.464Z,100841.84
2022-09-13T10:55:39.070Z,100833.09
2022-09-13T10:58:43.986Z,100845.97
2022-09-13T11:01:57.043Z,100851.75
2022-09-13T11:05:22.201Z,100849.78
2022-09-13T11:08:48.513Z,100851.69
2022-09-13T11:12:06.878Z,100849.84
2022-09-13T11:15:28.655Z,100845.69
2022-09-13T11:19:08.841Z,100844.56
2022-09-13T11:22:32.082Z,100832.28
2022-09-13T11:26:02.163Z,100833.56
2022-09-13T11:29:24.582Z,100835.78
2022-09-13T11:32:49.124Z,100841.75
2022-09-13T11:36:19.161Z,100847.06
2022-09-13T11:39:33.630Z,100839.81
2022-09-13T11:42:51.402Z,100841.66
2022-09-13T11:46:10.302Z,100840.03
2022-09-13T11:50:14.418Z,100832.44
2022-09-13T11:54:08.071Z,100839.03
2022-09-13T11:57:18.641Z,100834.72
2022-09-13T12:00:27.908Z,100827.19
2022-09-13T12:03:43.837Z,100825.44
2022-09-13T12:06:56.063Z,100825.72
2022-09-13T12:10:07.745Z,100814.69
2022-09-13T12:13:19.782Z,100820.38
2022-09-13T12:16:34.089Z,100819.84
2022-09-13T12:19:49.778Z,100808.00
2022-09-13T12:22:59.383Z,100820.06
2022-09-13T12:26:09.812Z,100821.69
2022-09-13T12:29:19.366Z,100818.63
2022-09-13T12:32:23.797Z,100817.47
2022-09-13T12:35:33.959Z,100816.28
2022-09-13T12:39:24.056Z,100815.69
2022-09-13T12:43:18.429Z,100820.38
2022-09-13T12:47:20.703Z,100813.81
2022-09-13T12:51:05.990Z,100809.22
2022-09-13T12:54:44.781Z,100810.59
2022-09-13T12:57:58.888Z,100823.31
2022-09-13T13:01:15.735Z,100819.69
2022-09-13T13:04:25.272Z,100817.16
2022-09-13T13:07:34.176Z,100814.09
2022-09-13T13:10:40.784Z,100812.75
2022-09-13T13:13:55.184Z,100825.09
2022-09-13T13:17:52.757Z,100813.53
2022-09-13T13:21:27.926Z,100811.88
2022-09-13T13:24:49.533Z,100800.75
2022-09-13T13:27:55.232Z,100812.91
2022-09-13T13:31:04.156Z,100811.69
2022-09-13T13:34:43.783Z,100808.06
2022-09-13T13:37:47.449Z,100806.69
2022-09-13T13:40:54.137Z,100809.16
2022-09-13T13:43:59.425Z,100813.16
2022-09-13T13:47:53.574Z,100814.38
2022-09-13T13:51:20.475Z,100813.53
2022-09-13T13:54:47.484Z,100802.38
2022-09-13T13:58:02.236Z,100800.75
2022-09-13T14:01:07.941Z,100799.97
2022-09-13T14:05:10.259Z,100799.97
2022-09-13T14:08:34.910Z,100804.31
2022-09-13T14:11:59.280Z,100805.81
2022-09-13T14:15:24.890Z,100809.78
2022-09-13T14:19:01.290Z,100806.25
2022-09-13T14:22:24.019Z,100805.69
2022-09-13T14:25:28.355Z,100794.13
2022-09-13T14:28:34.564Z,100792.22
2022-09-13T14:31:39.471Z,100793.94
2022-09-13T14:34:56.318Z,100794.78
2022-09-13T14:38:13.803Z,100784.47
2022-09-13T14:41:20.934Z,100784.56
2022-09-13T14:44:29.086Z,100791.53
2022-09-13T14:47:39.471Z,100805.38
2022-09-13T14:50:54.010Z,100804.19
2022-09-13T14:54:06.183Z,100809.91
2022-09-13T14:57:24.100Z,100809.94
2022-09-13T15:00:29.177Z,100808.53
2022-09-13T15:03:33.131Z,100805.53
2022-09-13T15:06:44.308Z,100806.22
2022-09-13T15:09:48.681Z,100809.91
2022-09-13T15:12:56.690Z,100804.63
2022-09-13T15:16:00.563Z,100805.69
2022-09-13T15:19:32.810Z,100800.63
2022-09-13T15:22:44.287Z,100799.38
2022-09-13T15:25:55.619Z,100800.91
2022-09-13T15:29:04.271Z,100811.69
2022-09-13T15:32:21.170Z,100809.69
2022-09-13T15:35:30.210Z,100816.47
2022-09-13T15:38:35.499Z,100815.22
2022-09-13T15:41:41.703Z,100826.03
2022-09-13T15:44:45.759Z,100835.94
2022-09-13T15:47:51.996Z,100830.97
2022-09-13T15:51:13.598Z,100841.16
2022-09-13T15:54:19.492Z,100834.75
2022-09-13T15:57:26.936Z,100837.34
2022-09-13T16:00:30.567Z,100836.16
2022-09-13T16:03:34.454Z,100839.19
2022-09-13T16:06:39.095Z,100838.09
2022-09-13T16:09:46.029Z,100842.09
2022-09-13T16:12:51.526Z,100830.75
2022-09-13T16:15:58.132Z,100829.56
2022-09-13T16:19:01.968Z,100836.13
2022-09-13T16:22:09.671Z,100838.44
2022-09-13T16:25:17.797Z,100842.97
2022-09-13T16:28:21.789Z,100851.72
2022-09-13T16:31:25.859Z,100861.53
2022-09-13T16:34:29.650Z,100850.34
2022-09-13T16:37:33.362Z,100849.50
2022-09-13T16:40:49.721Z,100856.72
2022-09-13T16:43:57.359Z,100842.78
2022-09-13T16:47:01.395Z,100848.28
2022-09-13T16:50:06.434Z,100840.63
2022-09-13T16:53:10.618Z,100835.06
2022-09-13T16:56:18.876Z,100843.97
2022-09-13T16:59:22.722Z,100852.38
2022-09-13T17:02:28.018Z,100847.66
2022-09-13T17:05:31.704Z,100848.22
2022-09-13T17:08:38.263Z,100848.44
2022-09-13T17:11:46.307Z,100851.44
2022-09-13T17:14:50.779Z,100852.03
2022-09-13T17:17:54.343Z,100857.50
2022-09-13T17:21:01.448Z,100853.44
2022-09-13T17:24:08.997Z,100853.50
2022-09-13T17:27:16.386Z,100855.66
2022-09-13T17:30:20.260Z,100856.97
2022-09-13T17:33:23.875Z,100863.28
2022-09-13T17:36:27.755Z,100863.75
2022-09-13T17:39:32.099Z,100865.56
2022-09-13T17:42:37.103Z,100860.78
2022-09-13T17:45:40.907Z,100864.72
2022-09-13T17:48:45.718Z,100863.94
2022-09-13T17:51:49.358Z,100866.44
2022-09-13T17:54:53.018Z,100861.50
2022-09-13T17:57:58.107Z,100864.75
2022-09-13T18:01:03.721Z,100871.50
2022-09-13T18:04:07.869Z,100864.78
2022-09-13T18:07:11.486Z,100865.19
2022-09-13T18:10:32.551Z,100862.06
2022-09-13T18:13:41.192Z,100854.34
2022-09-13T18:16:46.017Z,100861.00
2022-09-13T18:19:49.802Z,100864.75
2022-09-13T18:22:53.412Z,100872.94
2022-09-13T18:26:04.753Z,100874.81
2022-09-13T18:29:15.147Z,100872.41
2022-09-13T18:32:19.755Z,100873.59
2022-09-13T18:35:23.472Z,100879.81
2022-09-13T18:38:28.215Z,100884.53
2022-09-13T18:41:35.070Z,100885.78
2022-09-13T18:44:40.013Z,100878.13
2022-09-13T18:47:43.707Z,100877.28
2022-09-13T18:50:47.240Z,100885.38
2022-09-13T18:53:52.118Z,100884.84
2022-09-13T18:56:56.371Z,100890.28
2022-09-13T19:00:02.888Z,100888.81
2022-09-13T19:03:12.339Z,100877.72
2022-09-13T19:06:20.025Z,100879.81
2022-09-13T19:09:24.553Z,100883.06
2022-09-13T19:12:28.144Z,100882.47
2022-09-13T19:15:38.183Z,100875.72
2022-09-13T19:18:43.343Z,100881.91
2022-09-13T19:21:47.280Z,100876.16
2022-09-13T19:24:52.527Z,100874.47
2022-09-13T19:27:56.156Z,100873.69
2022-09-13T19:31:07.425Z,100872.06
2022-09-13T19:34:14.795Z,100864.28
2022-09-13T19:37:18.466Z,100867.16
2022-09-13T19:40:23.170Z,100864.75
2022-09-13T19:43:26.944Z,100859.69
2022-09-13T19:46:35.744Z,100854.19
2022-09-13T19:49:40.369Z,100858.59
2022-09-13T19:52:44.078Z,100863.16
2022-09-13T19:55:49.074Z,100855.63
2022-09-13T19:58:53.171Z,100852.38
2022-09-13T20:01:58.261Z,100849.72
2022-09-13T20:05:02.087Z,100847.56
2022-09-13T20:08:06.632Z,100840.16
2022-09-13T20:11:12.379Z,100851.66
2022-09-13T20:14:19.128Z,100849.22
2022-09-13T20:17:25.508Z,100856.44
2022-09-13T20:20:29.173Z,100859.19
2022-09-13T20:23:33.499Z,100858.41
2022-09-13T20:26:37.130Z,100860.22
2022-09-13T20:29:41.426Z,100852.38
2022-09-13T20:32:47.861Z,100852.38
2022-09-13T20:35:52.154Z,100857.69
2022-09-13T20:39:02.280Z,100853.53
2022-09-13T20:42:07.224Z,100856.34
2022-09-13T20:45:30.742Z,100845.94
2022-09-13T20:48:36.007Z,100850.38
2022-09-13T20:51:39.735Z,100854.28
2022-09-13T20:54:43.350Z,100853.50
2022-09-13T20:57:48.509Z,100851.09
2022-09-13T21:00:52.062Z,100855.63
2022-09-13T21:03:58.406Z,100851.34
2022-09-13T21:07:19.782Z,100853.97
2022-09-13T21:10:24.652Z,100854.19
2022-09-13T21:13:28.263Z,100844.56
2022-09-13T21:16:36.078Z,100846.59
2022-09-13T21:19:41.087Z,100843.28
2022-09-13T21:22:44.700Z,100840.78
2022-09-13T21:25:49.675Z,100840.72
2022-09-13T21:28:54.066Z,100838.09
2022-09-13T21:31:57.712Z,100836.38
2022-09-13T21:35:02.678Z,100828.53
2022-09-13T21:38:06.316Z,100825.16
2022-09-13T21:41:14.071Z,100824.06
2022-09-13T21:44:17.978Z,100824.34
2022-09-13T21:47:21.593Z,100827.03
2022-09-13T21:50:26.603Z,100830.53
2022-09-13T21:53:32.935Z,100843.69
2022-09-13T21:56:39.886Z,100836.72
2022-09-13T21:59:43.507Z,100836.06
2022-09-13T22:02:47.224Z,100837.91
2022-09-13T22:05:58.627Z,100829.38
2022-09-13T22:09:05.679Z,100831.09
2022-09-13T22:12:09.323Z,100825.81
2022-09-13T22:15:13.194Z,100830.28
2022-09-13T22:18:16.800Z,100834.78
2022-09-13T22:21:24.116Z,100833.84
2022-09-13T22:24:31.235Z,100831.41
2022-09-13T22:27:35.372Z,100824.31
2022-09-13T22:30:38.950Z,100825.16
2022-09-13T22:33:43.780Z,100818.03
2022-09-13T22:36:48.864Z,100822.53
2022-09-13T22:39:52.932Z,100814.94
2022-09-13T22:42:56.462Z,100813.38
2022-09-13T22:46:23.560Z,100822.97
2022-09-13T22:49:27.152Z,100823.06
2022-09-13T22:52:32.887Z,100816.94
2022-09-13T22:55:36.438Z,100819.56
2022-09-13T22:58:40.942Z,100817.03
2022-09-13T23:01:45.458Z,100816.06
2022-09-13T23:04:49.100Z,100814.50
2022-09-13T23:07:54.126Z,100824.25
2022-09-13T23:11:08.791Z,100811.16
2022-09-13T23:14:17.511Z,100813.94
2022-09-13T23:17:21.175Z,100816.63
2022-09-13T23:20:25.020Z,100810.66
2022-09-13T23:23:30.152Z,100809.00
2022-09-13T23:26:34.245Z,100803.88
2022-09-13T23:29:37.963Z,100798.75
2022-09-13T23:32:41.550Z,100801.63
2022-09-13T23:35:45.835Z,100796.59
2022-09-13T23:38:57.613Z,100801.91
2022-09-13T23:42:01.369Z,100806.44
2022-09-13T23:45:05.632Z,100800.53
2022-09-13T23:48:09.205Z,100793.69
2022-09-13T23:51:16.810Z,100788.56
2022-09-13T23:54:22.182Z,100779.03
2022-09-13T23:57:25.783Z,100775.28
